createdAt,value
2022-09-29T00:00:54.637Z,4.72
2022-09-29T00:03:23.359Z,5.40
2022-09-29T00:05:53.397Z,5.30
2022-09-29T00:08:24.059Z,4.78
2022-09-29T00:10:51.892Z,4.45
2022-09-29T00:13:20.055Z,4.03
2022-09-29T00:15:57.504Z,4.13
2022-09-29T00:18:25.644Z,4.28
2022-09-29T00:21:03.242Z,4.82
2022-09-29T00:23:32.558Z,4.28
2022-09-29T00:26:04.786Z,3.88
2022-09-29T00:28:33.625Z,4.90
2022-09-29T00:31:02.713Z,4.03
2022-09-29T00:33:32.597Z,4.07
2022-09-29T00:36:02.938Z,4.05
2022-09-29T00:38:31.396Z,3.85
2022-09-29T00:40:59.585Z,4.10
2022-09-29T00:43:52.733Z,3.83
2022-09-29T00:46:28.953Z,4.35
2022-09-29T00:49:02.871Z,3.33
2022-09-29T00:51:33.220Z,3.33
2022-09-29T00:54:01.850Z,3.50
2022-09-29T00:56:31.024Z,3.10
2022-09-29T00:59:05.195Z,3.65
2022-09-29T01:01:32.900Z,3.95
2022-09-29T01:04:05.139Z,4.03
2022-09-29T01:06:38.424Z,3.80
2022-09-29T01:09:24.154Z,3.40
2022-09-29T01:11:53.198Z,3.88
2022-09-29T01:14:22.275Z,3.30
2022-09-29T01:16:49.757Z,3.67
2022-09-29T01:19:38.083Z,3.88
2022-09-29T01:22:38.158Z,4.20
2022-09-29T01:25:33.734Z,4.63
2022-09-29T01:28:27.392Z,4.63
2022-09-29T01:33:59.402Z,4.20
2022-09-29T01:36:49.642Z,4.57
2022-09-29T01:39:31.375Z,4.30
2022-09-29T01:42:07.710Z,4.60
2022-09-29T01:44:44.965Z,3.83
2022-09-29T01:47:23.045Z,4.22
2022-09-29T01:50:03.915Z,4.43
2022-09-29T01:52:37.726Z,3.80
2022-09-29T01:55:10.592Z,4.20
2022-09-29T01:57:47.067Z,3.90
2022-09-29T02:00:17.384Z,3.47
2022-09-29T02:02:54.026Z,3.70
2022-09-29T02:05:39.713Z,4.18
2022-09-29T02:08:13.392Z,3.97
2022-09-29T02:10:50.444Z,3.60
2022-09-29T02:13:20.618Z,3.55
2022-09-29T02:15:54.214Z,4.18
2022-09-29T02:18:25.695Z,3.80
2022-09-29T02:20:53.476Z,3.78
2022-09-29T02:23:21.041Z,3.72
2022-09-29T02:25:50.716Z,3.85
2022-09-29T02:28:19.666Z,4.38
2022-09-29T02:30:50.019Z,3.90
2022-09-29T02:33:22.907Z,4.18
2022-09-29T02:35:58.880Z,4.35
2022-09-29T02:38:37.515Z,4.20
2022-09-29T02:41:17.456Z,4.18
2022-09-29T02:44:05.362Z,4.60
2022-09-29T02:46:56.290Z,3.97
2022-09-29T02:49:44.208Z,4.40
2022-09-29T02:52:31.948Z,5.03
2022-09-29T02:55:19.355Z,4.82
2022-09-29T02:57:53.934Z,4.43
2022-09-29T03:00:22.770Z,4.50
2022-09-29T03:02:50.301Z,4.82
2022-09-29T03:05:20.653Z,4.60
2022-09-29T03:07:48.398Z,5.10
2022-09-29T03:10:17.948Z,5.22
2022-09-29T03:12:46.935Z,5.13
2022-09-29T03:15:14.868Z,5.05
2022-09-29T03:17:42.556Z,4.57
2022-09-29T03:20:10.862Z,5.20
2022-09-29T03:22:38.826Z,4.85
2022-09-29T03:25:07.138Z,4.80
2022-09-29T03:27:36.961Z,5.28
2022-09-29T03:30:05.654Z,5.10
2022-09-29T03:32:36.657Z,5.38
2022-09-29T03:35:07.637Z,5.32
2022-09-29T03:37:38.135Z,5.45
2022-09-29T03:40:08.265Z,5.60
2022-09-29T03:42:37.924Z,5.20
2022-09-29T03:45:08.942Z,5.35
2022-09-29T03:47:36.509Z,5.20
2022-09-29T03:50:05.852Z,5.28
2022-09-29T03:52:34.762Z,6.30
2022-09-29T03:55:02.958Z,5.10
2022-09-29T03:57:31.826Z,5.95
2022-09-29T03:59:59.747Z,5.13
2022-09-29T04:02:27.395Z,5.82
2022-09-29T04:04:55.021Z,6.47
2022-09-29T04:07:22.547Z,5.90
2022-09-29T04:09:50.404Z,5.68
2022-09-29T04:12:17.884Z,5.97
2022-09-29T04:14:45.504Z,5.90
2022-09-29T04:17:13.029Z,5.88
2022-09-29T04:19:40.493Z,5.70
2022-09-29T04:22:08.066Z,5.32
2022-09-29T04:24:35.572Z,5.90
2022-09-29T04:27:03.323Z,5.85
2022-09-29T04:29:30.908Z,5.78
2022-09-29T04:31:58.558Z,5.88
2022-09-29T04:34:26.074Z,6.55
2022-09-29T04:36:54.174Z,5.95
2022-09-29T04:39:21.803Z,6.15
2022-09-29T04:41:50.827Z,6.20
2022-09-29T04:44:22.761Z,5.78
2022-09-29T04:46:52.511Z,6.72
2022-09-29T04:49:21.433Z,6.40
2022-09-29T04:51:49.550Z,5.72
2022-09-29T04:54:17.519Z,5.82
2022-09-29T04:56:45.408Z,6.38
2022-09-29T04:59:13.259Z,6.03
2022-09-29T05:01:40.742Z,5.68
2022-09-29T05:04:10.026Z,5.72
2022-09-29T05:06:39.707Z,6.05
2022-09-29T05:09:07.941Z,5.57
2022-09-29T05:11:36.078Z,5.75
2022-09-29T05:14:04.411Z,6.22
2022-09-29T05:16:32.472Z,5.55
2022-09-29T05:19:00.199Z,6.53
2022-09-29T05:21:29.111Z,7.82
2022-09-29T05:23:57.844Z,5.80
2022-09-29T05:26:25.883Z,6.18
2022-09-29T05:28:53.389Z,6.00
2022-09-29T05:31:21.913Z,6.03
2022-09-29T05:33:50.037Z,5.93
2022-09-29T05:36:21.121Z,5.65
2022-09-29T05:38:48.887Z,6.40
2022-09-29T05:41:22.669Z,5.63
2022-09-29T05:43:52.846Z,5.88
2022-09-29T05:46:22.444Z,5.47
2022-09-29T05:48:52.023Z,6.85
2022-09-29T05:51:23.777Z,7.78
2022-09-29T05:53:52.292Z,6.55
2022-09-29T05:56:23.647Z,7.72
2022-09-29T05:58:52.003Z,7.38
2022-09-29T06:01:23.984Z,7.97
2022-09-29T06:03:55.608Z,8.77
2022-09-29T06:06:25.909Z,8.40
2022-09-29T06:08:53.806Z,8.60
2022-09-29T06:11:25.663Z,9.02
2022-09-29T06:13:54.826Z,9.13
2022-09-29T06:16:26.212Z,8.50
2022-09-29T06:18:54.359Z,8.10
2022-09-29T06:21:24.079Z,8.65
2022-09-29T06:23:53.730Z,8.93
2022-09-29T06:26:24.234Z,9.48
2022-09-29T06:28:53.173Z,9.05
2022-09-29T06:31:22.973Z,8.85
2022-09-29T06:33:50.979Z,9.00
2022-09-29T06:36:40.587Z,8.88
2022-09-29T06:39:10.266Z,8.48
2022-09-29T06:41:38.193Z,9.00
2022-09-29T06:44:06.388Z,8.45
2022-09-29T06:46:34.309Z,8.68
2022-09-29T06:49:02.178Z,8.68
2022-09-29T06:51:42.969Z,9.32
2022-09-29T06:54:14.865Z,9.75
2022-09-29T06:56:42.978Z,9.65
2022-09-29T06:59:10.542Z,9.20
2022-09-29T07:01:38.135Z,9.10
2022-09-29T07:04:06.135Z,9.48
2022-09-29T07:06:33.780Z,9.30
2022-09-29T07:09:01.906Z,9.75
2022-09-29T07:11:29.584Z,9.90
2022-09-29T07:13:57.566Z,9.68
2022-09-29T07:16:25.319Z,11.13
2022-09-29T07:18:53.280Z,10.20
2022-09-29T07:21:22.353Z,10.23
2022-09-29T07:23:50.370Z,9.55
2022-09-29T07:26:18.233Z,10.23
2022-09-29T07:28:47.529Z,9.88
2022-09-29T07:31:18.050Z,10.05
2022-09-29T07:33:47.133Z,10.20
2022-09-29T07:36:17.200Z,10.40
2022-09-29T07:38:47.782Z,10.65
2022-09-29T07:41:15.958Z,10.52
2022-09-29T07:43:43.998Z,10.15
2022-09-29T07:46:11.890Z,10.23
2022-09-29T07:48:40.426Z,10.40
2022-09-29T07:51:13.046Z,10.02
2022-09-29T07:53:41.074Z,10.02
2022-09-29T07:56:13.111Z,10.25
2022-09-29T07:58:41.298Z,10.13
2022-09-29T08:01:13.390Z,9.55
2022-09-29T08:03:43.214Z,10.30
2022-09-29T08:06:12.010Z,8.80
2022-09-29T08:08:45.428Z,9.48
2022-09-29T08:11:28.540Z,9.77
2022-09-29T08:13:57.866Z,10.63
2022-09-29T08:16:25.684Z,9.98
2022-09-29T08:18:53.293Z,10.25
2022-09-29T08:21:21.004Z,9.82
2022-09-29T08:23:48.691Z,9.52
2022-09-29T08:26:20.446Z,9.30
2022-09-29T08:29:01.723Z,8.93
2022-09-29T08:31:34.284Z,8.90
2022-09-29T08:34:02.209Z,9.45
2022-09-29T08:36:29.945Z,9.40
2022-09-29T08:38:58.281Z,9.38
2022-09-29T08:41:48.329Z,8.68
2022-09-29T08:44:43.227Z,9.07
2022-09-29T08:47:46.088Z,9.07
2022-09-29T08:50:31.505Z,9.20
2022-09-29T08:53:07.232Z,9.18
2022-09-29T08:55:45.068Z,9.88
2022-09-29T08:58:17.239Z,9.90
2022-09-29T09:01:00.132Z,9.52
2022-09-29T09:03:53.793Z,9.82
2022-09-29T09:06:52.223Z,10.20
2022-09-29T09:09:42.558Z,10.63
2022-09-29T09:12:25.895Z,9.75
2022-09-29T09:15:14.863Z,10.80
2022-09-29T09:18:01.348Z,11.00
2022-09-29T09:20:55.059Z,10.73
2022-09-29T09:23:39.856Z,10.98
2022-09-29T09:26:11.749Z,11.93
2022-09-29T09:28:48.770Z,12.10
2022-09-29T09:31:51.064Z,11.65
2022-09-29T09:34:40.426Z,13.07
2022-09-29T09:37:21.173Z,12.38
2022-09-29T09:40:01.440Z,12.15
2022-09-29T09:42:35.283Z,12.45
2022-09-29T09:45:11.284Z,12.88
2022-09-29T09:47:48.239Z,12.00
2022-09-29T09:50:20.537Z,12.88
2022-09-29T09:52:56.259Z,12.73
2022-09-29T09:55:26.626Z,12.52
2022-09-29T09:58:29.597Z,12.25
2022-09-29T10:01:02.931Z,12.97
2022-09-29T10:03:31.195Z,12.75
2022-09-29T10:05:59.437Z,12.88
2022-09-29T10:08:31.965Z,12.88
2022-09-29T10:11:00.412Z,12.23
2022-09-29T10:13:31.160Z,12.00
2022-09-29T10:16:17.692Z,11.73
2022-09-29T10:18:48.949Z,10.98
2022-09-29T10:21:40.572Z,10.32
2022-09-29T10:24:24.201Z,9.02
2022-09-29T10:26:55.712Z,10.38
2022-09-29T10:29:31.901Z,9.35
2022-09-29T10:32:14.053Z,9.43
2022-09-29T10:34:47.372Z,8.73
2022-09-29T10:37:39.392Z,9.63
2022-09-29T10:40:21.607Z,8.30
2022-09-29T10:42:51.648Z,9.57
2022-09-29T10:45:22.966Z,8.82
2022-09-29T10:48:14.038Z,8.85
2022-09-29T10:53:44.445Z,9.23
2022-09-29T10:56:25.377Z,10.00
2022-09-29T10:59:03.172Z,8.85
2022-09-29T11:01:45.762Z,8.98
2022-09-29T11:04:23.169Z,8.77
2022-09-29T11:06:51.774Z,8.88
2022-09-29T11:09:30.467Z,9.05
2022-09-29T11:12:02.280Z,8.55
2022-09-29T11:14:42.266Z,8.20
2022-09-29T11:17:23.985Z,7.63
2022-09-29T11:19:54.390Z,8.05
2022-09-29T11:22:50.891Z,7.28
2022-09-29T11:25:42.917Z,7.70
2022-09-29T11:28:33.328Z,8.73
2022-09-29T11:31:17.544Z,7.75
2022-09-29T11:34:20.809Z,7.18
2022-09-29T11:37:19.268Z,7.63
2022-09-29T11:40:01.897Z,7.40
2022-09-29T11:42:58.774Z,6.68
2022-09-29T11:45:45.878Z,6.13
2022-09-29T11:48:37.831Z,6.60
2022-09-29T11:51:29.859Z,6.15
2022-09-29T11:54:23.189Z,5.45
2022-09-29T11:59:56.412Z,5.90
2022-09-29T12:02:45.861Z,5.35
2022-09-29T12:05:39.919Z,5.70
2022-09-29T12:08:42.547Z,5.18
2022-09-29T12:14:46.220Z,5.60
2022-09-29T12:17:19.320Z,5.47
2022-09-29T12:22:19.667Z,5.80
2022-09-29T12:24:57.789Z,6.60
2022-09-29T12:27:32.556Z,5.13
2022-09-29T12:30:21.958Z,6.00
2022-09-29T12:32:58.600Z,5.72
2022-09-29T12:35:38.242Z,5.47
2022-09-29T12:38:32.471Z,5.57
2022-09-29T12:41:22.301Z,5.78
2022-09-29T12:44:06.025Z,5.47
2022-09-29T12:46:42.694Z,5.20
2022-09-29T12:49:34.830Z,6.07
2022-09-29T12:52:06.079Z,5.75
2022-09-29T12:54:40.636Z,5.15
2022-09-29T12:57:21.187Z,5.38
2022-09-29T13:00:09.826Z,5.78
2022-09-29T13:03:08.918Z,5.35
2022-09-29T13:06:00.630Z,5.18
2022-09-29T13:08:50.854Z,5.18
2022-09-29T13:11:43.161Z,5.50
2022-09-29T13:14:39.283Z,5.93
2022-09-29T13:17:20.689Z,5.78
2022-09-29T13:20:10.886Z,6.43
2022-09-29T13:23:06.482Z,6.72
2022-09-29T13:26:09.868Z,6.28
2022-09-29T13:28:47.923Z,7.13
2022-09-29T13:31:20.214Z,6.57
2022-09-29T13:33:52.600Z,7.30
2022-09-29T13:36:29.492Z,6.75
2022-09-29T13:39:00.257Z,6.05
2022-09-29T13:41:39.884Z,7.85
2022-09-29T13:44:23.901Z,7.22
2022-09-29T13:46:55.108Z,7.57
2022-09-29T13:49:26.850Z,7.35
2022-09-29T13:52:01.167Z,7.63
2022-09-29T13:54:41.701Z,6.78
2022-09-29T13:57:27.639Z,7.70
2022-09-29T14:00:17.839Z,7.18
2022-09-29T14:02:52.496Z,6.78
2022-09-29T14:05:45.930Z,7.18
2022-09-29T14:08:20.634Z,7.50
2022-09-29T14:11:06.584Z,7.63
2022-09-29T14:13:48.477Z,7.80
2022-09-29T14:16:38.349Z,6.30
2022-09-29T14:19:22.168Z,7.70
2022-09-29T14:21:55.986Z,7.13
2022-09-29T14:24:42.621Z,6.90
2022-09-29T14:27:30.699Z,7.07
2022-09-29T14:30:17.129Z,7.88
2022-09-29T14:32:56.772Z,7.15
2022-09-29T14:35:33.501Z,7.80
2022-09-29T14:38:11.143Z,7.50
2022-09-29T14:44:05.015Z,8.10
2022-09-29T14:47:03.538Z,7.75
2022-09-29T14:50:15.741Z,7.03
2022-09-29T14:53:06.530Z,7.95
2022-09-29T14:56:05.646Z,8.13
2022-09-29T14:59:00.348Z,7.38
2022-09-29T15:01:32.096Z,8.40
2022-09-29T15:04:13.658Z,7.82
2022-09-29T15:06:51.248Z,7.88
2022-09-29T15:09:23.994Z,7.88
2022-09-29T15:11:55.469Z,8.25
2022-09-29T15:14:38.093Z,9.05
2022-09-29T15:17:22.720Z,8.38
2022-09-29T15:20:12.875Z,9.07
2022-09-29T15:23:04.126Z,8.80
2022-09-29T15:25:37.760Z,8.93
2022-09-29T15:28:21.440Z,8.88
2022-09-29T15:30:55.151Z,9.50
2022-09-29T15:33:32.483Z,9.45
2022-09-29T15:36:05.562Z,9.07
2022-09-29T15:38:38.818Z,9.93
2022-09-29T15:41:18.081Z,9.93
2022-09-29T15:43:57.830Z,9.38
2022-09-29T15:46:48.825Z,10.98
2022-09-29T15:49:19.508Z,10.43
2022-09-29T15:52:07.530Z,9.15
2022-09-29T15:54:40.870Z,10.07
2022-09-29T15:57:41.666Z,9.77
2022-09-29T16:00:46.429Z,10.40
2022-09-29T16:03:27.513Z,10.32
2022-09-29T16:06:02.572Z,10.52
2022-09-29T16:08:35.155Z,10.50
2022-09-29T16:11:09.618Z,10.60
2022-09-29T16:13:41.824Z,11.40
2022-09-29T16:16:13.546Z,11.05
2022-09-29T16:18:49.367Z,11.65
2022-09-29T16:21:21.337Z,11.90
2022-09-29T16:24:08.600Z,11.68
2022-09-29T16:26:42.258Z,12.10
2022-09-29T16:29:35.344Z,12.13
2022-09-29T16:32:42.467Z,12.45
2022-09-29T16:35:42.888Z,11.63
2022-09-29T16:38:31.737Z,12.20
2022-09-29T16:41:00.736Z,12.05
2022-09-29T16:43:33.258Z,12.50
2022-09-29T16:46:07.808Z,12.57
2022-09-29T16:48:41.784Z,11.48
2022-09-29T16:54:07.260Z,12.10
2022-09-29T16:56:37.306Z,12.23
2022-09-29T16:59:13.936Z,12.35
2022-09-29T17:01:43.413Z,11.85
2022-09-29T17:04:14.137Z,12.77
2022-09-29T17:06:48.930Z,12.55
2022-09-29T17:09:29.338Z,13.32
2022-09-29T17:12:00.500Z,12.45
2022-09-29T17:14:31.344Z,12.88
2022-09-29T17:17:00.025Z,13.57
2022-09-29T17:19:28.565Z,13.55
2022-09-29T17:21:58.727Z,12.88
2022-09-29T17:24:30.479Z,12.90
2022-09-29T17:27:14.474Z,14.00
2022-09-29T17:29:43.244Z,13.73
2022-09-29T17:32:15.046Z,14.65
2022-09-29T17:34:43.501Z,13.90
2022-09-29T17:37:11.706Z,13.77
2022-09-29T17:39:40.059Z,15.20
2022-09-29T17:42:08.667Z,15.02
2022-09-29T17:44:39.926Z,14.73
2022-09-29T17:49:57.348Z,14.20
2022-09-29T17:52:26.124Z,14.88
2022-09-29T17:54:55.095Z,14.00
2022-09-29T17:57:28.904Z,14.88
2022-09-29T17:59:58.549Z,15.00
2022-09-29T18:02:27.098Z,14.93
2022-09-29T18:04:55.765Z,15.13
2022-09-29T18:07:26.100Z,15.25
2022-09-29T18:09:54.582Z,14.20
2022-09-29T18:12:23.170Z,15.98
2022-09-29T18:14:52.578Z,16.50
2022-09-29T18:17:21.286Z,16.02
2022-09-29T18:19:49.841Z,15.27
2022-09-29T18:22:19.492Z,14.38
2022-09-29T18:24:47.806Z,16.00
2022-09-29T18:27:16.460Z,15.48
2022-09-29T18:29:47.070Z,14.95
2022-09-29T18:32:19.826Z,15.20
2022-09-29T18:34:48.728Z,15.13
2022-09-29T18:37:17.338Z,14.20
2022-09-29T18:39:49.425Z,15.27
2022-09-29T18:42:24.392Z,14.60
2022-09-29T18:44:53.954Z,14.52
2022-09-29T18:47:23.316Z,15.45
2022-09-29T18:49:52.514Z,15.40
2022-09-29T18:52:21.835Z,14.32
2022-09-29T18:54:50.877Z,14.65
2022-09-29T18:57:22.593Z,14.02
2022-09-29T18:59:52.544Z,14.77
2022-09-29T19:02:23.629Z,14.45
2022-09-29T19:04:53.967Z,13.80
2022-09-29T19:07:25.132Z,14.75
2022-09-29T19:09:58.508Z,14.55
2022-09-29T19:12:31.602Z,13.55
2022-09-29T19:17:36.428Z,14.10
2022-09-29T19:20:07.821Z,13.73
2022-09-29T19:22:43.425Z,12.75
2022-09-29T19:25:16.877Z,13.80
2022-09-29T19:30:20.529Z,15.15
2022-09-29T19:35:24.735Z,17.15
2022-09-29T19:37:56.939Z,14.32
2022-09-29T19:40:31.804Z,14.02
2022-09-29T19:43:07.047Z,13.93
2022-09-29T19:45:39.031Z,15.00
2022-09-29T19:48:10.243Z,14.20
2022-09-29T19:50:53.985Z,13.95
2022-09-29T19:53:22.240Z,14.70
2022-09-29T19:55:52.465Z,14.05
2022-09-29T19:58:21.054Z,14.80
2022-09-29T20:00:49.556Z,14.65
2022-09-29T20:03:17.911Z,14.15
2022-09-29T20:05:46.189Z,14.75
2022-09-29T20:08:14.664Z,16.13
2022-09-29T20:10:42.904Z,40.08
2022-09-29T20:13:15.132Z,14.95
2022-09-29T20:15:47.101Z,15.23
2022-09-29T20:18:15.932Z,14.68
2022-09-29T20:20:43.909Z,14.23
2022-09-29T20:23:12.181Z,14.40
2022-09-29T20:25:40.105Z,14.80
2022-09-29T20:28:10.637Z,20.77
2022-09-29T20:30:42.841Z,15.98
2022-09-29T20:33:10.618Z,15.23
2022-09-29T20:35:39.962Z,15.30
2022-09-29T20:38:08.542Z,15.07
2022-09-29T20:40:36.406Z,16.65
2022-09-29T20:43:04.772Z,16.50
2022-09-29T20:45:32.549Z,16.05
2022-09-29T20:48:00.551Z,15.80
2022-09-29T20:50:28.589Z,16.67
2022-09-29T20:52:56.779Z,15.23
2022-09-29T20:55:24.424Z,16.27
2022-09-29T20:57:56.775Z,15.40
2022-09-29T21:00:25.765Z,15.82
2022-09-29T21:02:53.529Z,16.77
2022-09-29T21:05:21.176Z,15.50
2022-09-29T21:07:48.745Z,15.45
2022-09-29T21:10:16.280Z,15.95
2022-09-29T21:12:46.177Z,15.45
2022-09-29T21:15:13.816Z,16.20
2022-09-29T21:25:04.406Z,15.55
2022-09-29T21:31:48.717Z,17.15
2022-09-29T21:34:59.395Z,17.50
2022-09-29T21:44:57.177Z,15.40
2022-09-29T21:47:56.149Z,15.75
2022-09-29T21:53:53.938Z,16.58
2022-09-29T21:56:42.529Z,15.65
2022-09-29T21:59:39.049Z,16.38
2022-09-29T22:02:38.341Z,15.65
2022-09-29T22:05:44.209Z,15.18
2022-09-29T22:08:32.805Z,15.57
2022-09-29T22:11:19.368Z,15.23
2022-09-29T22:14:01.629Z,15.63
2022-09-29T22:16:43.345Z,16.67
2022-09-29T22:23:32.100Z,15.32
2022-09-29T22:32:17.413Z,14.57
2022-09-29T22:35:40.010Z,14.85
2022-09-29T22:41:28.245Z,14.68
2022-09-29T22:44:25.191Z,14.55
2022-09-29T22:47:07.208Z,14.50
2022-09-29T22:52:41.852Z,14.95
2022-09-29T22:55:22.242Z,14.18
2022-09-29T23:01:24.791Z,14.48
2022-09-29T23:04:01.254Z,15.32
2022-09-29T23:06:56.995Z,14.57
2022-09-29T23:09:36.420Z,14.50
2022-09-29T23:12:19.050Z,14.18
2022-09-29T23:14:56.825Z,14.43
2022-09-29T23:17:32.430Z,14.38
2022-09-29T23:20:08.180Z,13.77
2022-09-29T23:23:01.789Z,13.75
2022-09-29T23:26:10.284Z,14.30
2022-09-29T23:29:00.295Z,13.90
2022-09-29T23:31:33.003Z,12.00
2022-09-29T23:34:29.818Z,13.10
2022-09-29T23:38:05.049Z,13.18
2022-09-29T23:40:32.689Z,12.32
2022-09-29T23:43:00.165Z,12.77
2022-09-29T23:45:27.565Z,12.27
2022-09-29T23:47:54.908Z,12.02
2022-09-29T23:50:22.695Z,13.43
2022-09-29T23:52:53.008Z,15.38
2022-09-29T23:55:20.429Z,14.15
2022-09-29T23:57:47.818Z,14.88
